Portada
METAR-TAF:

METAR-TAF

Aeroports :

Asaluyeh, Iran

latitud: 27-22-46N, longitud: 52-44-15E, altitud: 8 m

Observació

L'informe es va fer fa 2 hores i 36 minuts, a les 18:00 UTC
Vent 2 kt del Est/Sud-Est
Temperatura 21°C
Humitat 56%
Pressió 1014 hPa
Visibilitat: 7000 m
Núvols disperses a una alçada de 3000 ft, Cumulonimbus.
Núvols disperses a una alçada de 18000 ft
tempesta

METAR: OIBP 151800Z 12002KT 7000 TS SCT030CB SCT180 21/12 Q1013 A2993

Hora: 00:06 (20:36 UTC)


TAF: manca

Observacions i pronòstics meteorològics de més de 4000 aeroports (METAR i TAF).

Les estacions disponibles són els punts grocs i vermells al mapa.

Posi el ratolí al punt desitjat per veure el nom de l'estació.

Feu clic per veure les observacions i els pronòstics meteorològics.

Per canviar el mapa: feu clic els botons verds amb una creu de color negre per apropar; al botó verd amb un guió per allunyar la imatge; o en les fletxes verdes per a mapes adjacents.


METAR-TAF: